Time,TemperatureF,DewpointF,PressureIn,WindDirection,WindDirectionDegrees,WindSpeedMPH,WindSpeedGustMPH,Humidity,HourlyPrecipIn,Conditions,Clouds,dailyrainin,SoftwareType,DateUTC
2013-06-22 06:11:00,65.0,32.0,29.90,West,271,11.0,20.0,29,0.00,,,0.00,,2013-06-22 13:11:00,
2013-06-22 08:02:00,69.0,34.0,29.92,WNW,288,0.0,5.0,27,0.00,,,0.00,,2013-06-22 15:02:00,
2013-06-22 08:11:00,70.0,33.0,29.93,WNW,291,2.0,6.0,25,0.00,,,0.00,,2013-06-22 15:11:00,
2013-06-22 08:22:00,71.0,31.0,29.93,WNW,300,5.0,9.0,23,0.00,,,0.00,,2013-06-22 15:22:00,
2013-06-22 08:34:00,72.0,33.0,29.93,NW,311,6.0,9.0,24,0.00,,,0.00,,2013-06-22 15:34:00,
2013-06-22 08:43:00,72.0,33.0,29.93,NW,311,6.0,9.0,24,0.00,,,0.00,,2013-06-22 15:43:00,
2013-06-22 08:53:00,73.0,31.0,29.93,NW,314,5.0,10.0,21,0.00,,,0.00,,2013-06-22 15:53:00,
2013-06-22 09:02:00,74.0,32.0,29.93,NW,309,7.0,10.0,21,0.00,,,0.00,,2013-06-22 16:02:00,
2013-06-22 09:12:00,74.0,32.0,29.93,NW,309,7.0,10.0,21,0.00,,,0.00,,2013-06-22 16:12:00,
2013-06-22 09:22:00,75.0,31.0,29.93,NW,308,5.0,10.0,20,0.00,,,0.00,,2013-06-22 16:22:00,
2013-06-22 09:34:00,75.0,31.0,29.93,NW,308,5.0,10.0,20,0.00,,,0.00,,2013-06-22 16:34:00,
2013-06-22 09:43:00,77.0,32.0,29.93,NW,319,5.0,9.0,19,0.00,,,0.00,,2013-06-22 16:43:00,
2013-06-22 09:52:00,78.0,31.0,29.92,NW,315,5.0,9.0,18,0.00,,,0.00,,2013-06-22 16:52:00,
2013-06-22 10:01:00,79.0,29.0,29.92,WNW,296,1.0,5.0,16,0.00,,,0.00,,2013-06-22 17:01:00,
2013-06-22 10:11:00,79.0,29.0,29.92,WNW,296,1.0,5.0,16,0.00,,,0.00,,2013-06-22 17:11:00,
2013-06-22 10:22:00,80.0,28.0,29.94,NNW,330,2.0,10.0,15,0.00,,,0.00,,2013-06-22 17:22:00,
2013-06-22 10:34:00,80.0,28.0,29.94,NNW,330,2.0,10.0,15,0.00,,,0.00,,2013-06-22 17:34:00,
2013-06-22 10:43:00,82.0,28.0,29.94,NNW,346,4.0,8.0,14,0.00,,,0.00,,2013-06-22 17:43:00,
2013-06-22 10:52:00,84.0,26.0,29.93,NNE,25,4.0,16.0,12,0.00,,,0.00,,2013-06-22 17:52:00,
2013-06-22 11:01:00,85.0,27.0,29.93,NNW,348,6.0,11.0,12,0.00,,,0.00,,2013-06-22 18:01:00,
2013-06-22 11:11:00,85.0,27.0,29.93,NNW,348,6.0,11.0,12,0.00,,,0.00,,2013-06-22 18:11:00,
2013-06-22 11:22:00,85.0,27.0,29.93,NE,36,4.0,12.0,12,0.00,,,0.00,,2013-06-22 18:22:00,
2013-06-22 11:33:00,86.0,27.0,29.93,NE,34,8.0,15.0,12,0.00,,,0.00,,2013-06-22 18:33:00,
2013-06-22 11:43:00,86.0,27.0,29.93,NE,34,8.0,15.0,12,0.00,,,0.00,,2013-06-22 18:43:00,
2013-06-22 11:52:00,86.0,25.0,29.92,NNE,15,5.0,16.0,11,0.00,,,0.00,,2013-06-22 18:52:00,
2013-06-22 12:01:00,87.0,26.0,29.92,East,90,3.0,6.0,11,0.00,,,0.00,,2013-06-22 19:01:00,
2013-06-22 12:11:00,87.0,26.0,29.92,East,90,3.0,6.0,11,0.00,,,0.00,,2013-06-22 19:11:00,
2013-06-22 12:42:00,88.0,36.0,29.93,North,5,4.0,7.0,16,0.00,,,0.00,,2013-06-22 19:42:00,
2013-06-22 12:53:00,85.0,37.0,29.93,SSE,157,4.0,16.0,18,0.00,,,0.00,,2013-06-22 19:53:00,
2013-06-22 13:33:00,84.0,42.0,29.91,SSE,156,8.0,15.0,23,0.00,,,0.00,,2013-06-22 20:33:00,
2013-06-22 13:42:00,84.0,42.0,29.91,SSE,156,8.0,15.0,23,0.00,,,0.00,,2013-06-22 20:42:00,
2013-06-22 13:53:00,84.0,42.0,29.91,SSE,152,7.0,17.0,23,0.00,,,0.00,,2013-06-22 20:53:00,
2013-06-22 14:01:00,82.0,43.0,29.90,WSW,249,10.0,19.0,25,0.00,,,0.00,,2013-06-22 21:01:00,
2013-06-22 14:11:00,82.0,43.0,29.90,WSW,249,10.0,19.0,25,0.00,,,0.00,,2013-06-22 21:11:00,
2013-06-22 14:22:00,83.0,45.0,29.91,SSE,157,10.0,18.0,26,0.00,,,0.00,,2013-06-22 21:22:00,
2013-06-22 14:33:00,83.0,45.0,29.90,SW,232,9.0,19.0,26,0.00,,,0.00,,2013-06-22 21:33:00,
2013-06-22 14:43:00,83.0,45.0,29.90,SW,232,9.0,19.0,26,0.00,,,0.00,,2013-06-22 21:43:00,
2013-06-22 14:53:00,83.0,45.0,29.91,SW,227,10.0,20.0,26,0.00,,,0.00,,2013-06-22 21:53:00,
2013-06-22 15:01:00,82.0,45.0,29.90,SE,141,7.0,17.0,27,0.00,,,0.00,,2013-06-22 22:01:00,
2013-06-22 15:11:00,82.0,45.0,29.90,SE,141,7.0,17.0,27,0.00,,,0.00,,2013-06-22 22:11:00,
2013-06-22 15:23:00,82.0,45.0,29.90,SW,228,9.0,18.0,27,0.00,,,0.00,,2013-06-22 22:23:00,
2013-06-22 15:33:00,82.0,45.0,29.90,SW,228,9.0,18.0,27,0.00,,,0.00,,2013-06-22 22:33:00,
2013-06-22 15:43:00,82.0,45.0,29.90,SSE,152,14.0,21.0,27,0.00,,,0.00,,2013-06-22 22:43:00,
2013-06-22 15:52:00,82.0,45.0,29.90,South,190,8.0,20.0,27,0.00,,,0.00,,2013-06-22 22:52:00,
2013-06-22 16:01:00,82.0,46.0,29.90,SSE,156,7.0,22.0,28,0.00,,,0.00,,2013-06-22 23:01:00,
2013-06-22 16:11:00,82.0,46.0,29.90,SSE,156,7.0,22.0,28,0.00,,,0.00,,2013-06-22 23:11:00,
2013-06-22 16:33:00,81.0,45.0,29.90,SE,126,10.0,22.0,28,0.00,,,0.00,,2013-06-22 23:33:00,
2013-06-22 16:42:00,81.0,45.0,29.90,South,185,8.0,15.0,28,0.00,,,0.00,,2013-06-22 23:42:00,
2013-06-22 16:52:00,82.0,46.0,29.89,WSW,242,11.0,17.0,28,0.00,,,0.00,,2013-06-22 23:52:00,
2013-06-22 17:01:00,81.0,46.0,29.88,South,176,8.0,20.0,29,0.00,,,0.00,,2013-06-23 00:01:00,
2013-06-22 17:11:00,81.0,46.0,29.88,South,176,8.0,20.0,29,0.00,,,0.00,,2013-06-23 00:11:00,
2013-06-22 17:22:00,81.0,46.0,29.86,SW,221,11.0,17.0,29,0.00,,,0.00,,2013-06-23 00:22:00,
2013-06-22 17:33:00,80.0,45.0,29.88,South,179,9.0,17.0,29,0.00,,,0.00,,2013-06-23 00:33:00,
2013-06-22 17:41:00,79.0,44.0,29.88,South,187,7.0,18.0,29,0.00,,,0.00,,2013-06-23 00:41:00,
2013-06-22 17:42:00,80.0,45.0,29.88,South,179,9.0,17.0,29,0.00,,,0.00,,2013-06-23 00:42:00,
2013-06-22 17:53:00,80.0,45.0,29.88,South,179,9.0,17.0,29,0.00,,,0.00,,2013-06-23 00:53:00,
2013-06-22 18:01:00,79.0,44.0,29.88,South,187,7.0,18.0,29,0.00,,,0.00,,2013-06-23 01:01:00,
2013-06-22 18:11:00,79.0,44.0,29.88,South,187,7.0,18.0,29,0.00,,,0.00,,2013-06-23 01:11:00,
2013-06-22 18:21:00,79.0,44.0,29.88,South,187,7.0,18.0,29,0.00,,,0.00,,2013-06-23 01:21:00,
2013-06-22 18:32:00,79.0,44.0,29.88,South,187,7.0,18.0,29,0.00,,,0.00,,2013-06-23 01:32:00,
2013-06-22 19:52:00,77.0,46.0,29.86,SW,226,9.0,17.0,34,0.00,,,0.00,,2013-06-23 02:52:00,
2013-06-22 20:01:00,77.0,46.0,29.86,SW,226,9.0,17.0,34,0.00,,,0.00,,2013-06-23 03:01:00,
2013-06-22 20:11:00,77.0,46.0,29.86,SW,226,9.0,17.0,34,0.00,,,0.00,,2013-06-23 03:11:00,
2013-06-22 20:21:00,77.0,46.0,29.86,SW,226,9.0,17.0,34,0.00,,,0.00,,2013-06-23 03:21:00,
2013-06-22 20:31:00,77.0,46.0,29.86,SW,226,9.0,17.0,34,0.00,,,0.00,,2013-06-23 03:31:00,
2013-06-22 22:11:00,70.0,37.0,29.88,WSW,237,7.0,15.0,30,0.00,,,0.00,,2013-06-23 05:11:00,
2013-06-22 22:22:00,70.0,37.0,29.88,WSW,237,7.0,15.0,30,0.00,,,0.00,,2013-06-23 05:22:00,
2013-06-22 22:32:00,70.0,37.0,29.88,WSW,237,7.0,15.0,30,0.00,,,0.00,,2013-06-23 05:32:00,
2013-06-22 22:41:00,71.0,30.0,29.89,West,273,8.0,20.0,22,0.00,,,0.00,,2013-06-23 05:41:00,
2013-06-22 22:51:00,70.0,30.0,29.90,WSW,245,10.0,15.0,23,0.00,,,0.00,,2013-06-23 05:51:00,
2013-06-22 23:02:00,70.0,33.0,29.88,SW,223,10.0,15.0,25,0.00,,,0.00,,2013-06-23 06:02:00,
2013-06-22 23:11:00,70.0,33.0,29.88,SW,223,10.0,15.0,25,0.00,,,0.00,,2013-06-23 06:11:00,
2013-06-22 23:22:00,70.0,34.0,29.88,West,275,6.0,15.0,26,0.00,,,0.00,,2013-06-23 06:22:00,
2013-06-22 23:32:00,68.0,34.0,29.88,West,275,4.0,16.0,28,0.00,,,0.00,,2013-06-23 06:32:00,
2013-06-22 23:43:00,68.0,34.0,29.88,West,275,4.0,16.0,28,0.00,,,0.00,,2013-06-23 06:43:00,
2013-06-22 23:52:00,69.0,34.0,29.90,SW,229,10.0,14.0,27,0.00,,,0.00,,2013-06-23 06:52:00,